Terminal Aerodrome Forecast
Issued by NWS

Home | Current Version | Previous Version | Text Only | Print | Product List | Glossary On
Versions: 1 2 3 4 5 6 7 8 9 10 11 12 13 14 15
704
FTAK31 PAJN 082137 AAA
TAFAPG
TAF AMD
PAPG 082137Z 0822/0918 VRB06KT P6SM -RA SCT004 BKN025 OVC040
      TEMPO 0822/0902 5SM -RA BR SCT004 OVC015
     FM090200 03003KT 3SM -RA BR BKN007 OVC015 WS020/17030KT
     FM090800 13005KT 3SM -RA BR SCT007 OVC015
     FM091700 13010KT 6SM -RA BR FEW008 SCT015 OVC035=

USA.gov is the U.S. government's official web portal to all federal, state and local government web resources and services.